Startpagina
METAR-TAF:

METAR-TAF

Vliegvelden :

Hanoi, Vietnam

Internationale Luchthaven Nội Bài

breedte: 21-01N, lengte: 105-48E, hoogte: 6 m

Actueel weer

Dit bericht is 21 minuten geleden gemaakt, om 21:30 UTC
Wind 2 kt uit variabele richting
Temperatuur 19°C
Vochtigheid 83%
Druk 1017 hPa
Zicht: 5000 m
Gebroken wolken op 4000 ft
nevel

METAR: VVNB 182130Z VRB02KT 5000 BR BKN040 19/16 Q1017 NOSIG

Tijdstip: 04:51 (21:51 UTC)

Verwachting

Dit bericht is 4 uur en het 51 minuten geleden gemaakt, om 17:00 UTC
Verwachting geldig van 18 om 18 UTC tot 19 om 18 UTC
Wind 5 kt uit het oosten
Zicht: 4000 m
Weinig wolken op 2000 ft
Gebroken wolken op 4000 ft
nevel
Wijzigt naar
van 18 om 22 UTC tot 18 om 23 UTC
Zicht: 2500 m
nevel
Wijzigt naar
van 19 om 01 UTC tot 19 om 02 UTC
Zicht: 6000 m

TAF: VVNB 181700Z 1818/1918 08005KT 4000 BR FEW020 BKN040 BECMG 1822/1823 2500 BR BECMG 1901/1902 6000 NSW

Waarnemingen en weersverwachtingen van meer dan 4000 vliegvelden (METAR en TAF).

De beschikbare stations zijn de gele en rode punten op de kaart.

Ga met uw muis naar het station om de naam te zien.

Klik dan om waarnemingen en weersverwachtingen te zien.

kaart wijzigen: klik op de groene knoppen met een zwart kruis om in te zoomen, op de groene knop met een streepje om uit te zoomen of op de groene pijlen voor aangrenzende kaarten.


METAR-TAF: